createdAt,value
2023-01-03T00:00:02.091Z,80.00
2023-01-03T00:01:01.705Z,79.00
2023-01-03T00:02:02.384Z,79.00
2023-01-03T00:03:02.826Z,79.00
2023-01-03T00:04:02.440Z,79.00
2023-01-03T00:05:02.299Z,79.00
2023-01-03T00:06:02.305Z,79.00
2023-01-03T00:07:02.424Z,79.00
2023-01-03T00:08:02.211Z,79.00
2023-01-03T00:09:01.956Z,79.00
2023-01-03T00:10:02.464Z,78.00
2023-01-03T00:11:02.039Z,78.00
2023-01-03T00:12:01.998Z,78.00
2023-01-03T00:13:02.427Z,78.00
2023-01-03T00:14:01.944Z,78.00
2023-01-03T00:15:02.383Z,78.00
2023-01-03T00:16:01.855Z,79.00
2023-01-03T00:17:02.975Z,79.00
2023-01-03T00:18:02.497Z,78.00
2023-01-03T00:19:02.763Z,78.00
2023-01-03T00:20:02.566Z,78.00
2023-01-03T00:21:02.632Z,79.00
2023-01-03T00:22:02.396Z,79.00
2023-01-03T00:23:02.565Z,79.00
2023-01-03T00:24:02.614Z,79.00
2023-01-03T00:25:03.050Z,78.00
2023-01-03T00:26:02.548Z,79.00
2023-01-03T00:27:02.290Z,79.00
2023-01-03T00:28:02.086Z,80.00
2023-01-03T00:29:02.600Z,79.00
2023-01-03T00:30:02.093Z,79.00
2023-01-03T00:31:02.561Z,80.00
2023-01-03T00:32:02.755Z,80.00
2023-01-03T00:33:02.528Z,80.00
2023-01-03T00:34:02.304Z,81.00
2023-01-03T00:35:05.271Z,81.00
2023-01-03T00:36:02.284Z,81.00
2023-01-03T00:37:02.641Z,82.00
2023-01-03T00:38:03.135Z,82.00
2023-01-03T00:39:02.941Z,82.00
2023-01-03T00:40:02.684Z,82.00
2023-01-03T00:41:03.159Z,82.00
2023-01-03T00:42:03.005Z,82.00
2023-01-03T00:43:02.634Z,82.00
2023-01-03T00:44:02.961Z,82.00
2023-01-03T00:45:02.633Z,82.00
2023-01-03T00:46:03.258Z,83.00
2023-01-03T00:47:03.238Z,83.00
2023-01-03T00:48:03.309Z,83.00
2023-01-03T00:49:03.254Z,83.00
2023-01-03T00:50:03.023Z,83.00
2023-01-03T00:51:02.770Z,83.00
2023-01-03T00:52:02.664Z,83.00
2023-01-03T00:53:02.636Z,83.00
2023-01-03T00:54:02.486Z,83.00
2023-01-03T00:55:02.587Z,83.00
2023-01-03T00:56:02.356Z,83.00
2023-01-03T00:57:03.221Z,83.00
2023-01-03T00:58:02.995Z,82.00
2023-01-03T00:59:02.767Z,82.00
2023-01-03T01:00:03.210Z,81.00
2023-01-03T01:01:03.140Z,81.00
2023-01-03T01:02:03.138Z,81.00
2023-01-03T01:03:03.115Z,80.00
2023-01-03T01:04:03.237Z,80.00
2023-01-03T01:05:02.986Z,81.00
2023-01-03T01:06:03.441Z,81.00
2023-01-03T01:07:02.693Z,81.00
2023-01-03T01:08:02.518Z,81.00
2023-01-03T01:09:02.732Z,81.00
2023-01-03T01:10:03.121Z,80.00
2023-01-03T01:11:02.841Z,80.00
2023-01-03T01:12:02.625Z,80.00
2023-01-03T01:13:02.609Z,80.00
2023-01-03T01:14:02.211Z,80.00
2023-01-03T01:15:02.584Z,79.00
2023-01-03T01:16:02.587Z,79.00
2023-01-03T01:17:02.419Z,79.00
2023-01-03T01:18:02.183Z,79.00
2023-01-03T01:19:02.627Z,79.00
2023-01-03T01:20:02.473Z,79.00
2023-01-03T01:21:02.784Z,79.00
2023-01-03T01:22:03.049Z,79.00
2023-01-03T01:23:02.891Z,79.00
2023-01-03T01:24:03.418Z,79.00
2023-01-03T01:25:02.921Z,79.00
2023-01-03T01:26:02.823Z,79.00
2023-01-03T01:27:02.225Z,79.00
2023-01-03T01:28:02.304Z,79.00
2023-01-03T01:29:02.329Z,79.00
2023-01-03T01:30:02.120Z,79.00
2023-01-03T01:31:02.227Z,79.00
2023-01-03T01:32:02.649Z,79.00
2023-01-03T01:33:02.423Z,79.00
2023-01-03T01:34:02.808Z,79.00
2023-01-03T01:35:02.546Z,79.00
2023-01-03T01:36:02.381Z,79.00
2023-01-03T01:37:02.931Z,79.00
2023-01-03T01:38:03.296Z,79.00
2023-01-03T01:39:02.665Z,79.00
2023-01-03T01:40:03.073Z,78.00
2023-01-03T01:41:02.859Z,78.00
2023-01-03T01:42:02.293Z,78.00
2023-01-03T01:43:02.096Z,79.00
2023-01-03T01:44:02.143Z,79.00
2023-01-03T01:45:02.508Z,79.00
2023-01-03T01:46:02.118Z,79.00
2023-01-03T01:47:02.890Z,78.00
2023-01-03T01:48:02.515Z,78.00
2023-01-03T01:49:02.495Z,78.00
2023-01-03T01:50:02.947Z,78.00
2023-01-03T01:51:02.393Z,78.00
2023-01-03T01:52:02.979Z,78.00
2023-01-03T01:53:02.760Z,78.00
2023-01-03T01:54:02.686Z,79.00
2023-01-03T01:55:03.094Z,79.00
2023-01-03T01:56:02.690Z,79.00
2023-01-03T01:57:03.002Z,80.00
2023-01-03T01:58:02.954Z,80.00
2023-01-03T01:59:02.814Z,80.00
2023-01-03T02:00:03.308Z,80.00
2023-01-03T02:01:03.160Z,80.00
2023-01-03T02:02:02.798Z,80.00
2023-01-03T02:03:02.880Z,80.00
2023-01-03T02:04:02.486Z,80.00
2023-01-03T02:05:02.924Z,80.00
2023-01-03T02:06:02.451Z,80.00
2023-01-03T02:07:02.997Z,79.00
2023-01-03T02:08:02.725Z,79.00
2023-01-03T02:09:02.511Z,79.00
2023-01-03T02:10:02.927Z,79.00
2023-01-03T02:11:02.626Z,79.00
2023-01-03T02:12:02.767Z,79.00
2023-01-03T02:13:02.827Z,79.00
2023-01-03T02:14:03.200Z,79.00
2023-01-03T02:15:03.196Z,79.00
2023-01-03T02:16:03.344Z,79.00
2023-01-03T02:17:02.772Z,79.00
2023-01-03T02:18:02.282Z,79.00
2023-01-03T02:19:02.948Z,79.00
2023-01-03T02:20:02.468Z,79.00
2023-01-03T02:21:02.902Z,79.00
2023-01-03T02:22:03.086Z,79.00
2023-01-03T02:23:02.828Z,79.00
2023-01-03T02:24:02.644Z,79.00
2023-01-03T02:25:03.125Z,79.00
2023-01-03T02:26:02.929Z,79.00
2023-01-03T02:27:03.392Z,79.00
2023-01-03T02:28:03.213Z,79.00
2023-01-03T02:29:02.946Z,79.00
2023-01-03T02:30:03.449Z,79.00
2023-01-03T02:31:03.220Z,78.00
2023-01-03T02:32:02.351Z,78.00
2023-01-03T02:33:02.788Z,79.00
2023-01-03T02:34:02.531Z,79.00
2023-01-03T02:35:02.293Z,79.00
2023-01-03T02:36:02.623Z,79.00
2023-01-03T02:37:02.732Z,79.00
2023-01-03T02:38:03.143Z,79.00
2023-01-03T02:39:02.742Z,79.00
2023-01-03T02:40:03.192Z,79.00
2023-01-03T02:41:02.620Z,79.00
2023-01-03T02:42:02.788Z,79.00
2023-01-03T02:43:02.371Z,79.00
2023-01-03T02:44:02.711Z,79.00
2023-01-03T02:45:02.423Z,79.00
2023-01-03T02:46:02.311Z,79.00
2023-01-03T02:47:03.409Z,79.00
2023-01-03T02:48:02.915Z,79.00
2023-01-03T02:49:03.312Z,80.00
2023-01-03T02:50:02.719Z,80.00
2023-01-03T02:51:03.153Z,80.00
2023-01-03T02:52:03.611Z,80.00
2023-01-03T02:53:03.177Z,81.00
2023-01-03T02:54:03.115Z,80.00
2023-01-03T02:55:03.625Z,80.00
2023-01-03T02:56:03.180Z,80.00
2023-01-03T02:57:03.215Z,80.00
2023-01-03T02:58:02.745Z,79.00
2023-01-03T02:59:03.238Z,79.00
2023-01-03T03:00:02.764Z,79.00
2023-01-03T03:01:03.022Z,80.00
2023-01-03T03:02:01.990Z,79.00
2023-01-03T03:03:01.909Z,80.00
2023-01-03T03:04:02.291Z,79.00
2023-01-03T03:05:02.107Z,79.00
2023-01-03T03:06:01.788Z,79.00
2023-01-03T03:07:02.624Z,79.00
2023-01-03T03:08:02.387Z,79.00
2023-01-03T03:09:02.834Z,78.00
2023-01-03T03:10:02.280Z,78.00
2023-01-03T03:11:02.373Z,79.00
2023-01-03T03:12:01.884Z,79.00
2023-01-03T03:13:02.360Z,79.00
2023-01-03T03:14:01.801Z,79.00
2023-01-03T03:15:02.342Z,79.00
2023-01-03T03:16:02.135Z,79.00
2023-01-03T03:17:02.824Z,79.00
2023-01-03T03:18:02.685Z,79.00
2023-01-03T03:19:02.425Z,78.00
2023-01-03T03:20:06.485Z,78.00
2023-01-03T03:21:02.957Z,79.00
2023-01-03T03:22:02.541Z,79.00
2023-01-03T03:23:02.439Z,79.00
2023-01-03T03:24:02.927Z,80.00
2023-01-03T03:25:02.600Z,80.00
2023-01-03T03:26:03.044Z,80.00
2023-01-03T03:27:01.680Z,81.00
2023-01-03T03:28:02.111Z,81.00
2023-01-03T03:29:01.631Z,81.00
2023-01-03T03:30:02.140Z,81.00
2023-01-03T03:31:01.622Z,81.00
2023-01-03T03:32:02.461Z,80.00
2023-01-03T03:33:02.116Z,80.00
2023-01-03T03:34:02.482Z,80.00
2023-01-03T03:35:02.086Z,80.00
2023-01-03T03:36:02.525Z,81.00
2023-01-03T03:37:01.859Z,80.00
2023-01-03T03:38:01.600Z,80.00
2023-01-03T03:39:02.024Z,80.00
2023-01-03T03:40:02.086Z,80.00
2023-01-03T03:41:01.595Z,79.00
2023-01-03T03:42:02.181Z,79.00
2023-01-03T03:43:01.952Z,80.00
2023-01-03T03:44:02.369Z,80.00
2023-01-03T03:45:02.590Z,80.00
2023-01-03T03:46:02.446Z,80.00
2023-01-03T03:47:05.680Z,80.00
2023-01-03T03:48:03.025Z,80.00
2023-01-03T03:49:02.531Z,80.00
2023-01-03T03:50:02.975Z,80.00
2023-01-03T03:51:02.820Z,80.00
2023-01-03T03:52:02.509Z,80.00
2023-01-03T03:53:02.355Z,80.00
2023-01-03T03:54:02.116Z,80.00
2023-01-03T03:55:02.561Z,80.00
2023-01-03T03:56:02.232Z,80.00
2023-01-03T03:57:01.761Z,80.00
2023-01-03T03:58:01.906Z,80.00
2023-01-03T03:59:01.905Z,80.00
2023-01-03T04:00:01.703Z,80.00
2023-01-03T04:01:01.492Z,80.00
2023-01-03T04:02:02.051Z,80.00
2023-01-03T04:03:02.139Z,79.00
2023-01-03T04:04:01.739Z,80.00
2023-01-03T04:05:01.561Z,80.00
2023-01-03T04:06:02.032Z,80.00
2023-01-03T04:07:02.441Z,80.00
2023-01-03T04:08:02.265Z,80.00
2023-01-03T04:09:02.779Z,80.00
2023-01-03T04:10:02.330Z,80.00
2023-01-03T04:11:02.293Z,80.00
2023-01-03T04:12:01.869Z,80.00
2023-01-03T04:13:02.149Z,80.00
2023-01-03T04:14:01.722Z,80.00
2023-01-03T04:15:02.142Z,80.00
2023-01-03T04:16:01.856Z,80.00
2023-01-03T04:17:01.806Z,80.00
2023-01-03T04:18:02.371Z,79.00
2023-01-03T04:19:01.945Z,79.00
2023-01-03T04:20:02.382Z,79.00
2023-01-03T04:21:01.840Z,79.00
2023-01-03T04:22:02.170Z,79.00
2023-01-03T04:23:02.457Z,79.00
2023-01-03T04:24:02.381Z,79.00
2023-01-03T04:25:02.525Z,79.00
2023-01-03T04:26:02.121Z,79.00
2023-01-03T04:27:02.579Z,79.00
2023-01-03T04:28:02.879Z,79.00
2023-01-03T04:29:02.362Z,79.00
2023-01-03T04:30:02.759Z,79.00
2023-01-03T04:31:02.237Z,79.00
2023-01-03T04:32:02.760Z,78.00
2023-01-03T04:33:02.335Z,79.00
2023-01-03T04:34:02.795Z,79.00
2023-01-03T04:35:02.532Z,80.00
2023-01-03T04:36:02.760Z,80.00
2023-01-03T04:37:02.346Z,80.00
2023-01-03T04:38:02.097Z,79.00
2023-01-03T04:39:02.541Z,79.00
2023-01-03T04:40:02.051Z,79.00
2023-01-03T04:41:02.478Z,79.00
2023-01-03T04:42:01.580Z,79.00
2023-01-03T04:43:01.980Z,79.00
2023-01-03T04:44:01.783Z,79.00
2023-01-03T04:45:01.706Z,79.00
2023-01-03T04:46:01.611Z,79.00
2023-01-03T04:47:02.031Z,79.00
2023-01-03T04:48:02.144Z,79.00
2023-01-03T04:49:01.944Z,79.00
2023-01-03T04:50:01.706Z,79.00
2023-01-03T04:51:02.065Z,79.00
2023-01-03T04:52:02.483Z,79.00
2023-01-03T04:53:02.238Z,79.00
2023-01-03T04:54:02.677Z,79.00
2023-01-03T04:55:02.179Z,79.00
2023-01-03T04:56:02.624Z,79.00
2023-01-03T04:57:02.206Z,79.00
2023-01-03T04:58:01.980Z,79.00
2023-01-03T04:59:01.733Z,79.00
2023-01-03T05:00:01.909Z,79.00
2023-01-03T05:01:01.989Z,79.00
2023-01-03T05:02:02.597Z,79.00
2023-01-03T05:03:02.216Z,79.00
2023-01-03T05:04:02.063Z,78.00
2023-01-03T05:05:01.889Z,78.00
2023-01-03T05:06:02.396Z,78.00
2023-01-03T05:07:02.583Z,78.00
2023-01-03T05:08:02.340Z,78.00
2023-01-03T05:09:02.124Z,79.00
2023-01-03T05:10:02.537Z,79.00
2023-01-03T05:11:02.579Z,79.00
2023-01-03T05:12:03.159Z,79.00
2023-01-03T05:13:02.918Z,79.00
2023-01-03T05:14:02.694Z,79.00
2023-01-03T05:15:02.859Z,79.00
2023-01-03T05:16:02.714Z,80.00
2023-01-03T05:17:02.436Z,79.00
2023-01-03T05:18:02.304Z,80.00
2023-01-03T05:19:01.889Z,80.00
2023-01-03T05:20:02.339Z,80.00
2023-01-03T05:21:01.827Z,80.00
2023-01-03T05:22:02.886Z,80.00
2023-01-03T05:23:02.547Z,79.00
2023-01-03T05:24:02.422Z,79.00
2023-01-03T05:25:02.315Z,79.00
2023-01-03T05:26:02.794Z,79.00
2023-01-03T05:27:01.606Z,80.00
2023-01-03T05:28:02.268Z,80.00
2023-01-03T05:29:01.795Z,80.00
2023-01-03T05:30:02.202Z,80.00
2023-01-03T05:31:01.628Z,80.00
2023-01-03T05:32:02.800Z,79.00
2023-01-03T05:33:02.263Z,80.00
2023-01-03T05:34:02.719Z,80.00
2023-01-03T05:35:02.198Z,80.00
2023-01-03T05:36:02.694Z,80.00
2023-01-03T05:37:03.098Z,80.00
2023-01-03T05:38:02.609Z,80.00
2023-01-03T05:39:03.089Z,80.00
2023-01-03T05:40:02.599Z,80.00
2023-01-03T05:41:02.986Z,80.00
2023-01-03T05:42:03.017Z,80.00
2023-01-03T05:43:02.883Z,79.00
2023-01-03T05:44:03.014Z,80.00
2023-01-03T05:45:02.814Z,80.00
2023-01-03T05:46:02.717Z,80.00
2023-01-03T05:47:01.940Z,80.00
2023-01-03T05:48:02.356Z,80.00
2023-01-03T05:49:02.061Z,80.00
2023-01-03T05:50:01.892Z,80.00
2023-01-03T05:51:02.416Z,80.00
2023-01-03T05:52:01.974Z,80.00
2023-01-03T05:53:02.403Z,80.00
2023-01-03T05:54:02.395Z,80.00
2023-01-03T05:55:02.200Z,80.00
2023-01-03T05:56:02.021Z,80.00
2023-01-03T05:57:02.787Z,80.00
2023-01-03T05:58:03.036Z,80.00
2023-01-03T05:59:02.975Z,80.00
2023-01-03T06:00:02.532Z,80.00
2023-01-03T06:01:02.633Z,80.00
2023-01-03T06:02:02.250Z,81.00
2023-01-03T06:03:02.256Z,81.00
2023-01-03T06:04:02.705Z,81.00
2023-01-03T06:05:02.396Z,81.00
2023-01-03T06:06:02.313Z,81.00
2023-01-03T06:07:02.605Z,81.00
2023-01-03T06:08:02.510Z,81.00
2023-01-03T06:09:02.305Z,80.00
2023-01-03T06:10:02.716Z,80.00
2023-01-03T06:11:02.314Z,80.00
2023-01-03T06:12:02.533Z,80.00
2023-01-03T06:13:02.563Z,80.00
2023-01-03T06:14:02.375Z,79.00
2023-01-03T06:15:02.849Z,79.00
2023-01-03T06:16:02.882Z,79.00
2023-01-03T06:17:02.105Z,79.00
2023-01-03T06:18:01.871Z,80.00
2023-01-03T06:19:01.990Z,80.00
2023-01-03T06:20:01.843Z,80.00
2023-01-03T06:21:02.038Z,80.00
2023-01-03T06:22:08.638Z,79.00
2023-01-03T06:23:02.738Z,79.00
2023-01-03T06:24:02.603Z,79.00
2023-01-03T06:25:02.387Z,79.00
2023-01-03T06:26:02.944Z,79.00
2023-01-03T06:27:02.919Z,79.00
2023-01-03T06:28:03.372Z,79.00
2023-01-03T06:29:02.927Z,78.00
2023-01-03T06:30:02.915Z,78.00
2023-01-03T06:31:02.824Z,79.00
2023-01-03T06:32:08.932Z,79.00
2023-01-03T06:33:02.620Z,79.00
2023-01-03T06:34:02.508Z,79.00
2023-01-03T06:35:03.057Z,79.00
2023-01-03T06:36:02.893Z,79.00
2023-01-03T06:37:02.732Z,78.00
2023-01-03T06:38:02.537Z,79.00
2023-01-03T06:39:02.995Z,80.00
2023-01-03T06:40:02.774Z,79.00
2023-01-03T06:41:02.701Z,78.00
2023-01-03T06:42:02.271Z,79.00
2023-01-03T06:43:02.512Z,79.00
2023-01-03T06:44:02.018Z,79.00
2023-01-03T06:45:02.563Z,78.00
2023-01-03T06:46:02.182Z,79.00
2023-01-03T06:47:02.553Z,79.00
2023-01-03T06:48:02.542Z,79.00
2023-01-03T06:49:02.597Z,79.00
2023-01-03T06:50:02.357Z,79.00
2023-01-03T06:51:02.762Z,80.00
2023-01-03T06:52:01.862Z,80.00
2023-01-03T06:53:02.415Z,80.00
2023-01-03T06:54:02.237Z,81.00
2023-01-03T06:55:02.469Z,81.00
2023-01-03T06:56:02.434Z,81.00
2023-01-03T06:57:02.722Z,81.00
2023-01-03T06:58:03.004Z,81.00
2023-01-03T06:59:02.690Z,82.00
2023-01-03T07:00:02.995Z,81.00
2023-01-03T07:01:03.110Z,82.00
2023-01-03T07:02:02.268Z,82.00
2023-01-03T07:03:08.898Z,82.00
2023-01-03T07:04:02.391Z,82.00
2023-01-03T07:05:01.960Z,82.00
2023-01-03T07:06:02.429Z,82.00
2023-01-03T07:07:02.481Z,81.00
2023-01-03T07:08:02.336Z,81.00
2023-01-03T07:09:02.337Z,82.00
2023-01-03T07:10:02.830Z,82.00
2023-01-03T07:11:02.486Z,82.00
2023-01-03T07:12:02.940Z,82.00
2023-01-03T07:13:02.665Z,81.00
2023-01-03T07:14:03.107Z,81.00
2023-01-03T07:15:02.622Z,81.00
2023-01-03T07:16:03.177Z,81.00
2023-01-03T07:17:02.390Z,81.00
2023-01-03T07:18:01.860Z,81.00
2023-01-03T07:19:02.405Z,82.00
2023-01-03T07:20:02.268Z,83.00
2023-01-03T07:21:02.350Z,84.00
2023-01-03T07:22:02.727Z,85.00
2023-01-03T07:23:02.692Z,86.00
2023-01-03T07:24:02.518Z,86.00
2023-01-03T07:25:02.708Z,86.00
2023-01-03T07:26:02.658Z,86.00
2023-01-03T07:27:02.330Z,87.00
2023-01-03T07:28:07.132Z,87.00
2023-01-03T07:29:01.901Z,87.00
2023-01-03T07:30:01.833Z,88.00
2023-01-03T07:31:02.229Z,87.00
2023-01-03T07:32:02.649Z,87.00
2023-01-03T07:33:02.512Z,87.00
2023-01-03T07:34:02.608Z,86.00
2023-01-03T07:35:02.616Z,85.00
2023-01-03T07:36:09.323Z,85.00
2023-01-03T07:37:03.171Z,85.00
2023-01-03T07:38:03.012Z,85.00
2023-01-03T07:39:02.894Z,85.00
2023-01-03T07:40:02.985Z,85.00
2023-01-03T07:41:02.865Z,85.00
2023-01-03T07:42:02.730Z,84.00
2023-01-03T07:43:02.385Z,84.00
2023-01-03T07:44:02.260Z,84.00
2023-01-03T07:45:02.703Z,84.00
2023-01-03T07:46:02.693Z,84.00
2023-01-03T07:47:02.413Z,85.00
2023-01-03T07:48:01.929Z,85.00
2023-01-03T07:49:05.163Z,85.00
2023-01-03T07:50:02.189Z,85.00
2023-01-03T07:51:02.150Z,86.00
2023-01-03T07:52:02.670Z,85.00
2023-01-03T07:53:02.423Z,85.00
2023-01-03T07:54:02.491Z,85.00
2023-01-03T07:55:02.375Z,85.00
2023-01-03T07:56:04.450Z,84.00
2023-01-03T07:57:02.869Z,84.00
2023-01-03T07:58:02.204Z,84.00
2023-01-03T07:59:02.818Z,84.00
2023-01-03T08:00:02.288Z,84.00
2023-01-03T08:01:02.506Z,84.00
2023-01-03T08:02:02.999Z,84.00
2023-01-03T08:03:02.769Z,83.00
2023-01-03T08:04:02.515Z,84.00
2023-01-03T08:05:02.473Z,83.00
2023-01-03T08:06:02.439Z,83.00
2023-01-03T08:07:02.882Z,84.00
2023-01-03T08:08:03.213Z,83.00
2023-01-03T08:09:06.201Z,84.00
2023-01-03T08:10:03.047Z,83.00
2023-01-03T08:11:03.230Z,83.00
2023-01-03T08:12:02.029Z,84.00
2023-01-03T08:13:02.563Z,84.00
2023-01-03T08:14:02.325Z,84.00
2023-01-03T08:15:02.109Z,85.00
2023-01-03T08:16:02.053Z,85.00
2023-01-03T08:17:02.935Z,85.00
2023-01-03T08:18:02.345Z,86.00
2023-01-03T08:19:02.917Z,85.00
2023-01-03T08:20:02.314Z,85.00
2023-01-03T08:21:02.594Z,85.00
2023-01-03T08:22:02.380Z,85.00
2023-01-03T08:23:02.697Z,84.00
2023-01-03T08:24:02.543Z,85.00
2023-01-03T08:25:02.751Z,85.00
2023-01-03T08:26:02.717Z,85.00
2023-01-03T08:27:02.739Z,85.00
2023-01-03T08:28:03.118Z,85.00
2023-01-03T08:29:03.167Z,86.00
2023-01-03T08:30:03.059Z,86.00
2023-01-03T08:31:03.134Z,85.00
2023-01-03T08:32:02.297Z,85.00
2023-01-03T08:33:02.781Z,85.00
2023-01-03T08:34:02.668Z,85.00
2023-01-03T08:35:02.595Z,85.00
2023-01-03T08:36:02.546Z,85.00
2023-01-03T08:37:02.674Z,85.00
2023-01-03T08:38:03.232Z,85.00
2023-01-03T08:39:02.901Z,85.00
2023-01-03T08:40:03.433Z,85.00
2023-01-03T08:41:02.867Z,85.00
2023-01-03T08:42:02.729Z,85.00
2023-01-03T08:43:02.901Z,85.00
2023-01-03T08:44:02.803Z,85.00
2023-01-03T08:45:02.769Z,85.00
2023-01-03T08:46:03.268Z,84.00
2023-01-03T08:47:02.965Z,84.00
2023-01-03T08:48:02.826Z,84.00
2023-01-03T08:49:02.814Z,84.00
2023-01-03T08:50:03.457Z,84.00
2023-01-03T08:51:03.042Z,84.00
2023-01-03T08:52:02.033Z,84.00
2023-01-03T08:53:02.468Z,84.00
2023-01-03T08:54:02.374Z,84.00
2023-01-03T08:55:02.434Z,84.00
2023-01-03T08:56:02.336Z,84.00
2023-01-03T08:57:02.595Z,84.00
2023-01-03T08:58:02.650Z,84.00
2023-01-03T08:59:02.612Z,83.00
2023-01-03T09:00:02.543Z,84.00
2023-01-03T09:01:02.236Z,84.00
2023-01-03T09:02:03.100Z,84.00
2023-01-03T09:03:03.354Z,84.00
2023-01-03T09:04:02.868Z,84.00
2023-01-03T09:05:02.992Z,84.00
2023-01-03T09:06:02.961Z,83.00
2023-01-03T09:07:03.208Z,83.00
2023-01-03T09:08:03.121Z,83.00
2023-01-03T09:09:03.339Z,84.00
2023-01-03T09:10:03.252Z,84.00
2023-01-03T09:11:03.151Z,83.00
2023-01-03T09:12:02.735Z,84.00
2023-01-03T09:13:02.996Z,84.00
2023-01-03T09:14:02.761Z,84.00
2023-01-03T09:15:02.544Z,84.00
2023-01-03T09:16:02.517Z,83.00
2023-01-03T09:17:02.773Z,83.00
2023-01-03T09:18:02.789Z,83.00
2023-01-03T09:19:02.798Z,83.00
2023-01-03T09:20:02.618Z,83.00
2023-01-03T09:21:02.584Z,82.00
2023-01-03T09:22:03.887Z,82.00
2023-01-03T09:23:03.493Z,82.00
2023-01-03T09:24:03.505Z,82.00
2023-01-03T09:25:03.427Z,83.00
2023-01-03T09:26:03.508Z,81.00
2023-01-03T09:27:02.501Z,80.00
2023-01-03T09:28:02.508Z,80.00
2023-01-03T09:29:02.548Z,80.00
2023-01-03T09:30:02.363Z,80.00
2023-01-03T09:31:02.361Z,80.00
2023-01-03T09:32:03.189Z,80.00
2023-01-03T09:33:03.216Z,80.00
2023-01-03T09:34:03.137Z,81.00
2023-01-03T09:35:03.090Z,80.00
2023-01-03T09:36:03.002Z,80.00
2023-01-03T09:37:02.514Z,80.00
2023-01-03T09:38:02.747Z,81.00
2023-01-03T09:39:02.654Z,81.00
2023-01-03T09:40:02.532Z,81.00
2023-01-03T09:41:02.660Z,81.00
2023-01-03T09:42:02.838Z,81.00
2023-01-03T09:43:02.928Z,80.00
2023-01-03T09:44:02.957Z,79.00
2023-01-03T09:45:03.062Z,79.00
2023-01-03T09:46:03.070Z,78.00
2023-01-03T09:47:03.426Z,78.00
2023-01-03T09:48:03.112Z,78.00
2023-01-03T09:49:03.182Z,78.00
2023-01-03T09:51:19.764Z,79.00
2023-01-03T09:52:03.364Z,76.00
2023-01-03T09:53:03.160Z,77.00
2023-01-03T09:54:03.501Z,77.00
2023-01-03T09:55:03.452Z,77.00
2023-01-03T09:56:03.440Z,76.00
2023-01-03T09:57:02.817Z,77.00
2023-01-03T09:58:02.952Z,76.00
2023-01-03T09:59:02.902Z,77.00
2023-01-03T10:00:02.967Z,77.00
2023-01-03T10:01:03.081Z,77.00
2023-01-03T10:02:02.513Z,77.00
2023-01-03T10:03:02.588Z,78.00
2023-01-03T10:04:02.505Z,75.00
2023-01-03T10:05:02.287Z,76.00
2023-01-03T10:06:02.299Z,76.00
2023-01-03T10:07:02.844Z,76.00
2023-01-03T10:08:02.981Z,74.00
2023-01-03T10:09:02.881Z,73.00
2023-01-03T10:10:02.486Z,73.00
2023-01-03T10:11:02.528Z,72.00
2023-01-03T10:12:02.233Z,72.00
2023-01-03T10:13:02.195Z,72.00
2023-01-03T10:14:02.534Z,70.00
2023-01-03T10:15:02.366Z,71.00
2023-01-03T10:16:02.389Z,70.00
2023-01-03T10:17:02.544Z,69.00
2023-01-03T10:18:02.601Z,68.00
2023-01-03T10:19:02.267Z,69.00
2023-01-03T10:20:02.503Z,70.00
2023-01-03T10:21:02.561Z,71.00
2023-01-03T10:22:02.943Z,71.00
2023-01-03T10:23:03.275Z,70.00
2023-01-03T10:24:03.136Z,68.00
2023-01-03T10:25:02.760Z,68.00
2023-01-03T10:26:02.907Z,68.00
2023-01-03T10:27:02.455Z,68.00
2023-01-03T10:28:02.202Z,67.00
2023-01-03T10:29:02.057Z,67.00
2023-01-03T10:30:02.521Z,66.00
2023-01-03T10:31:07.765Z,66.00
2023-01-03T10:32:02.740Z,66.00
2023-01-03T10:33:02.547Z,66.00
2023-01-03T10:34:02.486Z,66.00
2023-01-03T10:35:02.658Z,66.00
2023-01-03T10:36:02.427Z,66.00
2023-01-03T10:37:03.280Z,66.00
2023-01-03T10:38:03.062Z,66.00
2023-01-03T10:39:02.903Z,66.00
2023-01-03T10:40:03.196Z,66.00
2023-01-03T10:41:03.162Z,66.00
2023-01-03T10:42:02.775Z,66.00
2023-01-03T10:43:02.651Z,65.00
2023-01-03T10:44:02.710Z,65.00
2023-01-03T10:45:02.770Z,66.00
2023-01-03T10:46:02.575Z,65.00
2023-01-03T10:47:03.210Z,64.00
2023-01-03T10:48:02.882Z,64.00
2023-01-03T10:49:31.864Z,64.00
2023-01-03T10:50:02.961Z,65.00
2023-01-03T10:51:03.009Z,65.00
2023-01-03T10:52:02.782Z,63.00
2023-01-03T10:53:02.542Z,63.00
2023-01-03T10:54:02.564Z,63.00
2023-01-03T10:55:02.621Z,64.00
2023-01-03T10:56:02.509Z,65.00
2023-01-03T10:57:02.815Z,63.00
2023-01-03T10:58:02.348Z,63.00
2023-01-03T10:59:02.166Z,64.00
2023-01-03T11:00:02.858Z,64.00
2023-01-03T11:01:02.660Z,64.00
2023-01-03T11:02:01.994Z,63.00
2023-01-03T11:03:01.960Z,62.00
2023-01-03T11:04:02.122Z,62.00
2023-01-03T11:05:01.743Z,63.00
2023-01-03T11:06:01.907Z,63.00
2023-01-03T11:07:02.099Z,64.00
2023-01-03T11:08:02.427Z,64.00
2023-01-03T11:09:02.177Z,63.00
2023-01-03T11:10:02.668Z,63.00
2023-01-03T11:11:02.288Z,63.00
2023-01-03T11:12:02.491Z,63.00
2023-01-03T11:13:02.594Z,62.00
2023-01-03T11:14:02.601Z,63.00
2023-01-03T11:15:02.769Z,63.00
2023-01-03T11:16:02.954Z,62.00
2023-01-03T11:17:02.694Z,63.00
2023-01-03T11:18:02.648Z,63.00
2023-01-03T11:19:03.203Z,62.00
2023-01-03T11:20:02.940Z,63.00
2023-01-03T11:21:03.254Z,62.00
2023-01-03T11:22:02.943Z,61.00
2023-01-03T11:23:02.221Z,61.00
2023-01-03T11:24:02.214Z,61.00
2023-01-03T11:25:02.271Z,61.00
2023-01-03T11:26:02.333Z,62.00
2023-01-03T11:27:02.342Z,62.00
2023-01-03T11:28:02.713Z,62.00
2023-01-03T11:29:02.776Z,61.00
2023-01-03T11:30:02.784Z,61.00
2023-01-03T11:31:02.744Z,61.00
2023-01-03T11:32:02.770Z,61.00
2023-01-03T11:33:01.985Z,62.00
2023-01-03T11:34:02.076Z,61.00
2023-01-03T11:36:02.063Z,60.00
2023-01-03T11:37:02.073Z,61.00
2023-01-03T11:38:02.821Z,59.00
2023-01-03T11:39:02.770Z,58.00
2023-01-03T11:40:03.161Z,59.00
2023-01-03T11:41:02.883Z,58.00
2023-01-03T11:42:02.497Z,59.00
2023-01-03T11:43:01.965Z,59.00
2023-01-03T11:44:02.519Z,59.00
2023-01-03T11:45:02.231Z,59.00
2023-01-03T11:46:02.404Z,59.00
2023-01-03T11:47:02.475Z,60.00
2023-01-03T11:48:03.001Z,60.00
2023-01-03T11:49:02.838Z,60.00
2023-01-03T11:50:02.835Z,60.00
2023-01-03T11:51:02.847Z,60.00
2023-01-03T11:52:03.180Z,60.00
2023-01-03T11:53:02.552Z,61.00
2023-01-03T11:54:02.866Z,60.00
2023-01-03T11:55:02.553Z,60.00
2023-01-03T11:56:02.512Z,60.00
2023-01-03T11:57:02.493Z,60.00
2023-01-03T11:58:01.879Z,60.00
2023-01-03T11:59:01.775Z,60.00
2023-01-03T12:00:01.909Z,61.00
2023-01-03T12:01:02.023Z,61.00
2023-01-03T12:02:02.126Z,61.00
2023-01-03T12:03:02.979Z,60.00
2023-01-03T12:04:02.892Z,61.00
2023-01-03T12:05:02.444Z,61.00
2023-01-03T12:06:02.683Z,62.00
2023-01-03T12:07:29.058Z,63.00
2023-01-03T12:08:02.310Z,63.00
2023-01-03T12:09:02.218Z,63.00
2023-01-03T12:10:02.206Z,63.00
2023-01-03T12:11:02.036Z,62.00
2023-01-03T12:12:02.398Z,63.00
2023-01-03T12:13:02.507Z,63.00
2023-01-03T12:14:02.507Z,63.00
2023-01-03T12:15:02.710Z,62.00
2023-01-03T12:16:02.580Z,63.00
2023-01-03T12:17:02.416Z,62.00
2023-01-03T12:18:01.709Z,62.00
2023-01-03T12:19:04.494Z,62.00
2023-01-03T12:20:01.706Z,61.00
2023-01-03T12:21:01.745Z,61.00
2023-01-03T12:22:02.315Z,60.00
2023-01-03T12:23:02.676Z,60.00
2023-01-03T12:24:02.738Z,60.00
2023-01-03T12:25:05.646Z,60.00
2023-01-03T12:26:02.740Z,60.00
2023-01-03T12:27:02.662Z,60.00
2023-01-03T12:28:02.031Z,60.00
2023-01-03T12:29:01.910Z,60.00
2023-01-03T12:30:02.023Z,60.00
2023-01-03T12:31:01.910Z,60.00
2023-01-03T12:32:02.005Z,61.00
2023-01-03T12:33:02.038Z,60.00
2023-01-03T12:34:02.001Z,60.00
2023-01-03T12:35:02.045Z,59.00
2023-01-03T12:36:02.104Z,58.00
2023-01-03T12:37:02.390Z,59.00
2023-01-03T12:38:02.934Z,59.00
2023-01-03T12:39:02.931Z,59.00
2023-01-03T12:40:02.962Z,58.00
2023-01-03T12:41:02.763Z,59.00
2023-01-03T12:42:03.115Z,58.00
2023-01-03T12:43:02.013Z,58.00
2023-01-03T12:44:01.988Z,58.00
2023-01-03T12:45:02.006Z,58.00
2023-01-03T12:46:06.940Z,57.00
2023-01-03T12:47:02.044Z,57.00
2023-01-03T12:48:02.770Z,57.00
2023-01-03T12:49:02.090Z,57.00
2023-01-03T12:50:02.202Z,58.00
2023-01-03T12:51:02.159Z,58.00
2023-01-03T12:52:02.486Z,58.00
2023-01-03T12:53:03.148Z,58.00
2023-01-03T12:54:02.546Z,57.00